createdAt,value
2018-12-16T00:00:38.258Z,73.10
2018-12-16T00:03:05.838Z,73.36
2018-12-16T00:05:33.461Z,73.16
2018-12-16T00:08:01.091Z,73.48
2018-12-16T00:10:28.673Z,72.80
2018-12-16T00:12:57.213Z,73.50
2018-12-16T00:15:25.033Z,73.44
2018-12-16T00:17:52.602Z,73.89
2018-12-16T00:20:20.214Z,73.86
2018-12-16T00:22:47.894Z,73.35
2018-12-16T00:25:15.682Z,73.47
2018-12-16T00:27:43.246Z,73.35
2018-12-16T00:30:10.835Z,73.70
2018-12-16T00:32:38.427Z,73.22
2018-12-16T00:35:06.112Z,73.35
2018-12-16T00:37:33.993Z,73.32
2018-12-16T00:40:01.661Z,72.94
2018-12-16T00:42:29.247Z,73.94
2018-12-16T00:44:56.803Z,73.64
2018-12-16T00:47:24.364Z,73.43
2018-12-16T00:49:52.005Z,73.42
2018-12-16T00:52:19.581Z,73.51
2018-12-16T00:54:47.277Z,73.19
2018-12-16T00:57:14.866Z,72.84
2018-12-16T00:59:42.407Z,72.81
2018-12-16T01:02:15.823Z,72.96
2018-12-16T01:04:43.397Z,72.29
2018-12-16T01:07:10.983Z,72.67
2018-12-16T01:09:38.582Z,72.72
2018-12-16T01:12:06.734Z,72.59
2018-12-16T01:14:34.318Z,72.97
2018-12-16T01:17:02.006Z,72.94
2018-12-16T01:19:29.885Z,72.75
2018-12-16T01:21:57.516Z,72.37
2018-12-16T01:24:25.130Z,72.26
2018-12-16T01:26:52.725Z,72.58
2018-12-16T01:29:20.297Z,73.54
2018-12-16T01:31:47.831Z,73.73
2018-12-16T01:34:15.458Z,73.26
2018-12-16T01:36:43.033Z,72.52
2018-12-16T01:39:10.646Z,72.46
2018-12-16T01:41:38.313Z,72.62
2018-12-16T01:44:05.849Z,73.01
2018-12-16T01:46:33.447Z,73.49
2018-12-16T01:49:00.988Z,73.50
2018-12-16T01:51:28.604Z,72.87
2018-12-16T01:53:56.183Z,73.00
2018-12-16T01:56:23.709Z,73.63
2018-12-16T01:58:51.266Z,74.12
2018-12-16T02:01:18.863Z,74.91
2018-12-16T02:03:46.396Z,75.48
2018-12-16T02:06:13.975Z,76.55
2018-12-16T02:08:41.971Z,77.52
2018-12-16T02:11:09.497Z,78.97
2018-12-16T02:13:37.027Z,79.35
2018-12-16T02:16:04.878Z,79.74
2018-12-16T02:18:33.105Z,80.56
2018-12-16T02:21:00.845Z,80.35
2018-12-16T02:23:28.397Z,80.87
2018-12-16T02:25:55.942Z,81.19
2018-12-16T02:28:23.499Z,82.70
2018-12-16T02:30:51.284Z,82.70
2018-12-16T02:33:18.844Z,82.75
2018-12-16T02:35:47.715Z,83.46
2018-12-16T02:38:15.263Z,83.46
2018-12-16T02:40:42.794Z,84.26
2018-12-16T02:43:10.534Z,84.05
2018-12-16T02:45:38.213Z,84.15
2018-12-16T02:48:05.846Z,84.65
2018-12-16T02:50:33.446Z,85.01
2018-12-16T02:53:04.515Z,85.10
2018-12-16T02:55:30.672Z,85.07
2018-12-16T02:57:58.238Z,85.35
2018-12-16T03:00:25.845Z,85.40
2018-12-16T03:02:53.537Z,85.16
2018-12-16T03:05:21.282Z,84.87
2018-12-16T03:07:48.886Z,84.54
2018-12-16T03:10:16.427Z,85.13
2018-12-16T03:12:44.165Z,86.03
2018-12-16T03:15:11.739Z,86.09
2018-12-16T03:17:39.292Z,86.20
2018-12-16T03:20:07.329Z,86.65
2018-12-16T03:22:34.907Z,86.80
2018-12-16T03:25:02.744Z,86.37
2018-12-16T03:27:30.387Z,86.35
2018-12-16T03:29:57.935Z,86.57
2018-12-16T03:32:26.193Z,86.90
2018-12-16T03:34:53.716Z,86.90
2018-12-16T03:37:21.287Z,87.37
2018-12-16T03:39:48.910Z,87.45
2018-12-16T03:42:16.497Z,87.84
2018-12-16T03:44:44.177Z,87.57
2018-12-16T03:47:11.769Z,88.09
2018-12-16T03:49:39.391Z,88.28
2018-12-16T03:52:07.159Z,88.38
2018-12-16T03:54:34.893Z,88.69
2018-12-16T03:57:02.635Z,89.11
2018-12-16T03:59:31.458Z,89.12
2018-12-16T04:01:59.172Z,88.93
2018-12-16T04:04:26.746Z,88.44
2018-12-16T04:06:54.456Z,87.98
2018-12-16T04:09:22.008Z,87.87
2018-12-16T04:11:49.561Z,86.73
2018-12-16T04:14:17.191Z,86.54
2018-12-16T04:16:44.795Z,86.63
2018-12-16T04:19:12.874Z,86.77
2018-12-16T04:21:40.393Z,86.88
2018-12-16T04:24:08.090Z,87.43
2018-12-16T04:26:36.567Z,87.66
2018-12-16T04:29:04.141Z,86.67
2018-12-16T04:31:31.685Z,86.68
2018-12-16T04:34:00.371Z,86.47
2018-12-16T04:36:27.929Z,86.72
2018-12-16T04:38:55.519Z,87.57
2018-12-16T04:41:23.118Z,87.92
2018-12-16T04:43:50.705Z,88.84
2018-12-16T04:46:18.254Z,88.85
2018-12-16T04:48:45.822Z,88.78
2018-12-16T04:51:13.498Z,88.84
2018-12-16T04:53:41.174Z,89.22
2018-12-16T04:56:08.763Z,89.38
2018-12-16T04:58:36.383Z,89.29
2018-12-16T05:01:04.022Z,88.95
2018-12-16T05:03:31.586Z,88.91
2018-12-16T05:05:59.461Z,88.58
2018-12-16T05:08:27.025Z,88.56
2018-12-16T05:10:54.568Z,88.06
2018-12-16T05:13:22.301Z,87.94
2018-12-16T05:15:49.839Z,87.62
2018-12-16T05:18:17.383Z,88.28
2018-12-16T05:20:45.007Z,87.99
2018-12-16T05:23:12.566Z,87.81
2018-12-16T05:25:40.118Z,88.40
2018-12-16T05:28:08.714Z,88.20
2018-12-16T05:30:36.264Z,87.79
2018-12-16T05:33:03.844Z,87.73
2018-12-16T05:35:31.430Z,87.13
2018-12-16T05:37:58.970Z,86.87
2018-12-16T05:40:26.559Z,86.71
2018-12-16T05:42:54.092Z,86.26
2018-12-16T05:45:21.668Z,86.07
2018-12-16T05:47:49.214Z,85.45
2018-12-16T05:50:17.106Z,85.73
2018-12-16T05:52:44.673Z,85.66
2018-12-16T05:55:12.258Z,85.81
2018-12-16T05:57:40.804Z,85.52
2018-12-16T06:00:08.609Z,85.17
2018-12-16T06:02:36.152Z,84.98
2018-12-16T06:05:03.817Z,84.97
2018-12-16T06:07:31.698Z,85.44
2018-12-16T06:09:59.245Z,85.63
2018-12-16T06:12:26.887Z,85.41
2018-12-16T06:14:54.794Z,85.40
2018-12-16T06:17:22.386Z,85.79
2018-12-16T06:19:49.930Z,85.79
2018-12-16T06:22:17.631Z,86.18
2018-12-16T06:24:46.179Z,86.35
2018-12-16T06:27:13.757Z,86.57
2018-12-16T06:29:42.532Z,85.99
2018-12-16T06:32:10.088Z,85.99
2018-12-16T06:34:37.631Z,85.56
2018-12-16T06:37:06.069Z,85.83
2018-12-16T06:39:33.621Z,85.31
2018-12-16T06:42:02.109Z,85.57
2018-12-16T06:44:29.693Z,85.22
2018-12-16T06:46:57.281Z,85.34
2018-12-16T06:49:24.864Z,85.35
2018-12-16T06:51:52.401Z,85.09
2018-12-16T06:54:20.422Z,85.34
2018-12-16T06:56:47.975Z,85.61
2018-12-16T06:59:15.626Z,85.23
2018-12-16T07:01:43.244Z,84.94
2018-12-16T07:04:11.645Z,85.55
2018-12-16T07:06:39.320Z,85.56
2018-12-16T07:09:07.228Z,86.04
2018-12-16T07:11:34.816Z,85.81
2018-12-16T07:14:02.413Z,85.61
2018-12-16T07:16:30.741Z,85.52
2018-12-16T07:18:58.437Z,86.10
2018-12-16T07:21:26.031Z,85.58
2018-12-16T07:23:53.653Z,85.94
2018-12-16T07:26:21.230Z,86.52
2018-12-16T07:28:48.841Z,86.56
2018-12-16T07:31:16.693Z,86.81
2018-12-16T07:33:44.651Z,87.04
2018-12-16T07:36:12.412Z,87.81
2018-12-16T07:38:40.263Z,87.99
2018-12-16T07:41:07.858Z,87.84
2018-12-16T07:43:35.597Z,87.58
2018-12-16T07:46:03.410Z,87.82
2018-12-16T07:48:31.202Z,87.52
2018-12-16T07:50:58.771Z,87.89
2018-12-16T07:53:26.341Z,88.07
2018-12-16T07:55:54.926Z,88.26
2018-12-16T07:58:22.601Z,88.18
2018-12-16T08:00:50.181Z,88.00
2018-12-16T08:03:17.762Z,87.84
2018-12-16T08:05:45.360Z,87.81
2018-12-16T08:08:13.253Z,88.32
2018-12-16T08:10:40.881Z,88.16
2018-12-16T08:13:08.665Z,88.03
2018-12-16T08:15:36.262Z,88.33
2018-12-16T08:18:03.927Z,88.57
2018-12-16T08:20:31.498Z,88.56
2018-12-16T08:22:59.168Z,89.04
2018-12-16T08:25:26.781Z,89.01
2018-12-16T08:27:54.355Z,89.23
2018-12-16T08:30:22.742Z,89.09
2018-12-16T08:32:50.275Z,88.76
2018-12-16T08:35:17.856Z,88.66
2018-12-16T08:37:45.470Z,89.07
2018-12-16T08:40:13.105Z,88.81
2018-12-16T08:42:40.701Z,89.18
2018-12-16T08:45:08.595Z,88.77
2018-12-16T08:47:36.202Z,88.36
2018-12-16T08:50:03.866Z,88.41
2018-12-16T08:52:31.509Z,88.35
2018-12-16T08:54:59.085Z,87.99
2018-12-16T08:57:26.737Z,88.32
2018-12-16T08:59:54.308Z,88.12
2018-12-16T09:02:21.912Z,88.64
2018-12-16T09:04:49.514Z,88.58
2018-12-16T09:07:17.135Z,88.38
2018-12-16T09:09:45.290Z,88.50
2018-12-16T09:12:13.556Z,88.37
2018-12-16T09:14:41.170Z,88.37
2018-12-16T09:17:09.137Z,88.24
2018-12-16T09:19:36.717Z,88.32
2018-12-16T09:22:04.301Z,88.23
2018-12-16T09:24:37.219Z,87.90
2018-12-16T09:27:02.183Z,87.65
2018-12-16T09:29:29.740Z,87.94
2018-12-16T09:31:57.359Z,88.10
2018-12-16T09:34:25.002Z,87.88
2018-12-16T09:36:52.603Z,87.73
2018-12-16T09:39:20.645Z,87.99
2018-12-16T09:41:48.256Z,88.23
2018-12-16T09:44:15.842Z,87.39
2018-12-16T09:46:43.507Z,87.54
2018-12-16T09:49:11.118Z,87.20
2018-12-16T09:51:38.836Z,86.63
2018-12-16T09:54:06.523Z,85.91
2018-12-16T09:56:34.134Z,85.50
2018-12-16T09:59:02.244Z,85.70
2018-12-16T10:01:29.923Z,85.36
2018-12-16T10:03:57.482Z,85.07
2018-12-16T10:06:25.076Z,83.94
2018-12-16T10:08:52.765Z,83.66
2018-12-16T10:11:20.333Z,83.02
2018-12-16T10:13:47.930Z,83.54
2018-12-16T10:16:16.187Z,83.10
2018-12-16T10:18:43.809Z,81.41
2018-12-16T10:21:11.428Z,75.01
2018-12-16T10:23:38.984Z,67.50
2018-12-16T10:26:06.932Z,64.93
2018-12-16T10:28:34.506Z,65.27
2018-12-16T10:31:02.070Z,68.28
2018-12-16T10:33:29.653Z,70.29
2018-12-16T10:35:57.328Z,74.17
2018-12-16T10:38:24.883Z,76.63
2018-12-16T10:40:52.445Z,78.35
2018-12-16T10:43:19.986Z,79.34
2018-12-16T10:45:47.546Z,80.61
2018-12-16T10:48:15.401Z,81.75
2018-12-16T10:50:42.942Z,82.91
2018-12-16T10:53:10.469Z,83.41
2018-12-16T10:55:38.029Z,83.90
2018-12-16T10:58:05.741Z,84.17
2018-12-16T11:00:40.669Z,82.32
2018-12-16T11:03:08.414Z,81.25
2018-12-16T11:05:36.219Z,80.62
2018-12-16T11:08:04.261Z,81.24
2018-12-16T11:10:31.822Z,81.25
2018-12-16T11:12:59.478Z,81.17
2018-12-16T11:15:27.077Z,81.58
2018-12-16T11:17:54.610Z,81.14
2018-12-16T11:20:22.174Z,80.78
2018-12-16T11:22:50.003Z,80.31
2018-12-16T11:25:17.813Z,79.33
2018-12-16T11:27:45.391Z,78.09
2018-12-16T11:30:13.138Z,79.27
2018-12-16T11:32:40.731Z,79.28
2018-12-16T11:35:08.302Z,79.09
2018-12-16T11:37:35.872Z,78.38
2018-12-16T11:40:03.939Z,76.82
2018-12-16T11:42:31.540Z,76.61
2018-12-16T11:44:59.127Z,76.32
2018-12-16T11:47:26.938Z,76.31
2018-12-16T11:49:54.525Z,76.05
2018-12-16T11:52:22.108Z,76.33
2018-12-16T11:54:49.868Z,76.48
2018-12-16T11:57:17.457Z,77.17
2018-12-16T11:59:45.446Z,77.37
2018-12-16T12:02:13.125Z,77.97
2018-12-16T12:04:40.698Z,78.07
2018-12-16T12:07:08.279Z,76.85
2018-12-16T12:09:35.873Z,76.04
2018-12-16T12:12:03.504Z,75.43
2018-12-16T12:14:31.052Z,75.97
2018-12-16T12:16:58.616Z,76.68
2018-12-16T12:19:30.742Z,77.50
2018-12-16T12:22:04.234Z,77.51
2018-12-16T12:24:27.975Z,77.70
2018-12-16T12:26:55.551Z,78.28
2018-12-16T12:29:23.145Z,78.73
2018-12-16T12:31:50.804Z,78.70
2018-12-16T12:34:18.438Z,79.60
2018-12-16T12:36:46.305Z,80.54
2018-12-16T12:39:13.888Z,81.21
2018-12-16T12:41:41.441Z,80.62
2018-12-16T12:44:09.070Z,81.60
2018-12-16T12:46:36.658Z,81.99
2018-12-16T12:49:04.337Z,82.20
2018-12-16T12:51:31.983Z,81.96
2018-12-16T12:53:59.564Z,81.55
2018-12-16T12:56:27.480Z,80.91
2018-12-16T12:58:55.024Z,81.20
2018-12-16T13:01:22.613Z,81.40
2018-12-16T13:03:50.244Z,80.95
2018-12-16T13:06:18.659Z,80.53
2018-12-16T13:08:46.301Z,80.40
2018-12-16T13:11:13.906Z,80.84
2018-12-16T13:13:41.506Z,81.40
2018-12-16T13:16:09.128Z,81.40
2018-12-16T13:18:36.660Z,81.45
2018-12-16T13:21:04.351Z,81.54
2018-12-16T13:23:31.937Z,80.91
2018-12-16T13:26:04.238Z,80.91
2018-12-16T13:28:31.826Z,80.86
2018-12-16T13:30:59.403Z,81.30
2018-12-16T13:33:26.973Z,81.97
2018-12-16T13:35:54.575Z,82.09
2018-12-16T13:38:22.170Z,82.14
2018-12-16T13:40:49.797Z,82.45
2018-12-16T13:43:17.429Z,82.47
2018-12-16T13:45:45.085Z,82.18
2018-12-16T13:48:12.661Z,82.18
2018-12-16T13:50:40.401Z,82.62
2018-12-16T13:53:08.020Z,82.56
2018-12-16T13:55:40.803Z,82.71
2018-12-16T13:58:05.676Z,82.38
2018-12-16T14:00:34.108Z,82.78
2018-12-16T14:03:01.906Z,82.86
2018-12-16T14:05:29.556Z,82.68
2018-12-16T14:07:57.133Z,82.71
2018-12-16T14:10:24.717Z,83.00
2018-12-16T14:12:52.293Z,83.35
2018-12-16T14:15:19.890Z,82.72
2018-12-16T14:17:47.473Z,82.80
2018-12-16T14:20:15.069Z,82.67
2018-12-16T14:22:42.927Z,82.81
2018-12-16T14:25:10.474Z,83.23
2018-12-16T14:27:38.072Z,83.12
2018-12-16T14:30:06.949Z,82.64
2018-12-16T14:32:34.477Z,82.54
2018-12-16T14:35:02.221Z,81.81
2018-12-16T14:37:29.843Z,81.98
2018-12-16T14:39:57.459Z,82.27
2018-12-16T14:42:25.412Z,82.06
2018-12-16T14:44:52.987Z,82.53
2018-12-16T14:47:20.570Z,82.53
2018-12-16T14:49:48.544Z,82.89
2018-12-16T14:52:16.132Z,82.50
2018-12-16T14:54:43.713Z,82.65
2018-12-16T14:57:11.634Z,82.55
2018-12-16T14:59:39.211Z,82.73
2018-12-16T15:02:06.827Z,83.00
2018-12-16T15:04:34.410Z,82.87
2018-12-16T15:07:02.000Z,82.82
2018-12-16T15:09:29.635Z,82.54
2018-12-16T15:11:57.194Z,81.20
2018-12-16T15:14:24.928Z,81.19
2018-12-16T15:16:52.692Z,81.53
2018-12-16T15:19:20.284Z,81.79
2018-12-16T15:21:47.880Z,82.39
2018-12-16T15:24:15.453Z,82.55
2018-12-16T15:26:43.024Z,82.75
2018-12-16T15:29:10.590Z,83.25
2018-12-16T15:31:38.263Z,84.29
2018-12-16T15:34:05.912Z,84.78
2018-12-16T15:36:33.533Z,85.57
2018-12-16T15:39:01.138Z,85.89
2018-12-16T15:41:28.747Z,85.68
2018-12-16T15:43:56.414Z,85.37
2018-12-16T15:46:23.998Z,85.11
2018-12-16T15:48:52.007Z,84.84
2018-12-16T15:51:19.705Z,84.81
2018-12-16T15:53:47.423Z,84.72
2018-12-16T15:56:15.227Z,84.61
2018-12-16T15:58:42.821Z,84.59
2018-12-16T16:01:10.430Z,84.67
2018-12-16T16:03:38.042Z,84.83
2018-12-16T16:06:05.629Z,85.12
2018-12-16T16:08:33.203Z,85.00
2018-12-16T16:11:01.050Z,84.41
2018-12-16T16:13:28.662Z,84.94
2018-12-16T16:15:56.191Z,85.49
2018-12-16T16:18:23.925Z,85.33
2018-12-16T16:20:51.604Z,85.57
2018-12-16T16:23:19.153Z,84.76
2018-12-16T16:25:46.725Z,85.14
2018-12-16T16:28:14.276Z,85.74
2018-12-16T16:30:41.861Z,85.74
2018-12-16T16:33:09.894Z,86.14
2018-12-16T16:35:37.436Z,86.14
2018-12-16T16:38:05.317Z,85.21
2018-12-16T16:40:33.115Z,84.82
2018-12-16T16:43:00.844Z,84.64
2018-12-16T16:45:28.418Z,84.90
2018-12-16T16:47:55.992Z,84.53
2018-12-16T16:50:23.567Z,84.95
2018-12-16T16:52:51.234Z,85.41
2018-12-16T16:55:19.224Z,85.65
2018-12-16T16:57:46.817Z,85.99
2018-12-16T17:00:14.501Z,85.91
2018-12-16T17:02:42.101Z,86.38
2018-12-16T17:05:09.750Z,86.57
2018-12-16T17:07:37.345Z,86.68
2018-12-16T17:10:05.370Z,86.57
2018-12-16T17:12:33.197Z,86.73
2018-12-16T17:15:00.839Z,87.05
2018-12-16T17:17:28.428Z,87.74
2018-12-16T17:19:56.009Z,87.94
2018-12-16T17:22:23.629Z,88.12
2018-12-16T17:24:51.209Z,88.42
2018-12-16T17:27:18.760Z,88.94
2018-12-16T17:29:46.315Z,88.97
2018-12-16T17:32:14.030Z,88.74
2018-12-16T17:34:41.570Z,88.26
2018-12-16T17:37:09.504Z,88.44
2018-12-16T17:39:37.069Z,88.58
2018-12-16T17:42:04.651Z,88.77
2018-12-16T17:44:32.284Z,88.63
2018-12-16T17:46:59.874Z,88.53
2018-12-16T17:49:27.574Z,88.76
2018-12-16T17:51:55.147Z,88.48
2018-12-16T17:54:22.893Z,88.42
2018-12-16T17:56:50.446Z,88.04
2018-12-16T17:59:18.477Z,87.78
2018-12-16T18:01:46.337Z,87.96
2018-12-16T18:04:13.893Z,87.91
2018-12-16T18:06:41.549Z,87.90
2018-12-16T18:09:09.175Z,87.68
2018-12-16T18:11:36.747Z,88.04
2018-12-16T18:14:04.864Z,87.86
2018-12-16T18:16:32.432Z,87.91
2018-12-16T18:19:00.105Z,88.52
2018-12-16T18:21:27.714Z,88.30
2018-12-16T18:23:55.377Z,88.05
2018-12-16T18:26:22.960Z,87.23
2018-12-16T18:28:51.654Z,87.24
2018-12-16T18:31:19.248Z,87.12
2018-12-16T18:33:46.808Z,86.92
2018-12-16T18:36:14.459Z,87.21
2018-12-16T18:38:42.049Z,87.30
2018-12-16T18:41:09.798Z,87.59
2018-12-16T18:43:37.438Z,87.59
2018-12-16T18:46:05.042Z,87.50
2018-12-16T18:48:32.739Z,87.14
2018-12-16T18:51:00.302Z,87.17
2018-12-16T18:53:27.866Z,87.28
2018-12-16T18:55:55.481Z,87.14
2018-12-16T18:58:23.078Z,87.50
2018-12-16T19:00:50.686Z,87.65
2018-12-16T19:03:18.945Z,87.61
2018-12-16T19:05:46.547Z,87.63
2018-12-16T19:08:14.169Z,87.36
2018-12-16T19:10:41.786Z,87.34
2018-12-16T19:13:09.388Z,86.95
2018-12-16T19:15:36.958Z,86.72
2018-12-16T19:18:04.743Z,86.32
2018-12-16T19:20:32.295Z,86.30
2018-12-16T19:22:59.965Z,86.54
2018-12-16T19:25:27.645Z,86.38
2018-12-16T19:27:55.272Z,86.68
2018-12-16T19:30:22.971Z,86.91
2018-12-16T19:32:50.526Z,86.56
2018-12-16T19:35:18.181Z,86.99
2018-12-16T19:37:45.815Z,87.12
2018-12-16T19:40:13.405Z,86.63
2018-12-16T19:42:41.127Z,86.60
2018-12-16T19:45:08.798Z,86.77
2018-12-16T19:47:36.438Z,86.28
2018-12-16T19:50:04.290Z,86.71
2018-12-16T19:52:31.923Z,86.42
2018-12-16T19:54:59.833Z,86.66
2018-12-16T19:57:27.988Z,86.76
2018-12-16T19:59:55.738Z,87.03
2018-12-16T20:02:23.437Z,87.34
2018-12-16T20:04:56.623Z,87.18
2018-12-16T20:07:24.183Z,87.29
2018-12-16T20:09:51.853Z,87.83
2018-12-16T20:12:19.493Z,87.55
2018-12-16T20:14:47.167Z,87.75
2018-12-16T20:17:14.748Z,87.47
2018-12-16T20:19:42.559Z,87.61
2018-12-16T20:22:10.123Z,87.24
2018-12-16T20:24:37.792Z,86.82
2018-12-16T20:27:11.842Z,86.61
2018-12-16T20:29:36.648Z,86.42
2018-12-16T20:32:04.462Z,85.78
2018-12-16T20:34:32.081Z,85.53
2018-12-16T20:36:59.667Z,85.34
2018-12-16T20:39:27.465Z,85.48
2018-12-16T20:41:55.031Z,85.26
2018-12-16T20:44:23.215Z,85.76
2018-12-16T20:46:51.114Z,85.63
2018-12-16T20:49:18.824Z,86.27
2018-12-16T20:51:46.555Z,87.03
2018-12-16T20:54:14.238Z,86.82
2018-12-16T20:56:41.845Z,87.07
2018-12-16T20:59:09.469Z,87.38
2018-12-16T21:01:37.057Z,87.39
2018-12-16T21:04:04.657Z,87.41
2018-12-16T21:06:32.627Z,87.87
2018-12-16T21:09:00.814Z,87.61
2018-12-16T21:11:34.113Z,87.66
2018-12-16T21:14:07.283Z,87.59
2018-12-16T21:16:40.469Z,87.27
2018-12-16T21:19:08.025Z,87.49
2018-12-16T21:21:35.699Z,87.28
2018-12-16T21:24:03.845Z,86.94
2018-12-16T21:26:31.437Z,87.14
2018-12-16T21:28:59.010Z,87.70
2018-12-16T21:31:26.630Z,87.12
2018-12-16T21:33:54.181Z,87.42
2018-12-16T21:36:21.773Z,86.97
2018-12-16T21:38:49.357Z,87.31
2018-12-16T21:41:16.920Z,87.11
2018-12-16T21:43:44.515Z,87.53
2018-12-16T21:46:12.097Z,87.83
2018-12-16T21:48:39.680Z,88.25
2018-12-16T21:51:07.268Z,88.05
2018-12-16T21:53:34.860Z,88.14
2018-12-16T21:56:02.789Z,88.01
2018-12-16T21:58:30.347Z,87.90
2018-12-16T22:00:57.959Z,88.34
2018-12-16T22:03:25.650Z,88.21
2018-12-16T22:05:53.267Z,87.83
2018-12-16T22:08:20.821Z,87.62
2018-12-16T22:10:48.435Z,87.28
2018-12-16T22:13:16.003Z,87.47
2018-12-16T22:15:43.581Z,87.30
2018-12-16T22:18:11.186Z,87.77
2018-12-16T22:20:38.780Z,87.67
2018-12-16T22:23:06.338Z,88.10
2018-12-16T22:25:33.954Z,87.84
2018-12-16T22:28:01.558Z,87.91
2018-12-16T22:30:29.141Z,87.73
2018-12-16T22:32:56.769Z,88.09
2018-12-16T22:35:24.361Z,87.56
2018-12-16T22:37:51.893Z,87.86
2018-12-16T22:40:19.838Z,87.72
2018-12-16T22:42:47.394Z,87.46
2018-12-16T22:45:14.977Z,87.53
2018-12-16T22:47:42.585Z,87.02
2018-12-16T22:50:10.109Z,87.28
2018-12-16T22:52:37.761Z,86.92
2018-12-16T22:55:05.693Z,86.38
2018-12-16T22:57:33.325Z,86.60
2018-12-16T23:00:00.975Z,86.62
2018-12-16T23:02:28.529Z,86.04
2018-12-16T23:04:56.111Z,86.17
2018-12-16T23:07:23.686Z,86.00
2018-12-16T23:09:51.234Z,86.43
2018-12-16T23:12:18.825Z,86.43
2018-12-16T23:14:46.352Z,86.74
2018-12-16T23:17:14.009Z,87.20
2018-12-16T23:19:43.691Z,87.27
2018-12-16T23:22:11.280Z,87.10
2018-12-16T23:24:39.359Z,87.32
2018-12-16T23:27:07.728Z,86.89
2018-12-16T23:29:35.285Z,86.81
2018-12-16T23:32:02.848Z,86.95
2018-12-16T23:34:30.743Z,87.57
2018-12-16T23:36:58.309Z,87.77
2018-12-16T23:39:26.071Z,87.14
2018-12-16T23:41:53.913Z,87.16
2018-12-16T23:44:22.276Z,86.57
2018-12-16T23:46:49.837Z,86.43
2018-12-16T23:49:17.724Z,86.58
2018-12-16T23:51:45.291Z,86.64
2018-12-16T23:54:12.850Z,87.19
2018-12-16T23:56:40.381Z,86.95
2018-12-16T23:59:08.526Z,87.25
